Time;durP1;ratioP1;P1;durP2;ratioP2;P2;SDS_P1;SDS_P2;PMS_P1;PMS_P2;Temp;Humidity;BMP_temperature;BMP_pressure;BME280_temperature;BME280_humidity;BME280_pressure;Samples;Min_cycle;Max_cycle;Signal;HPM_P1;HPM_P2
2021/01/23 00:00:40;;;;;;;10.55;4.63;;;1.60;99.90;;;;;;5033033;28;20030;-43
2021/01/23 00:03:06;;;;;;;7.35;4.22;;;1.60;99.90;;;;;;5032168;28;20036;-42
2021/01/23 00:05:31;;;;;;;5.43;3.75;;;1.60;99.90;;;;;;5033015;28;20108;-45
2021/01/23 00:08:01;;;;;;;5.80;3.17;;;1.60;99.90;;;;;;5033127;28;20026;-43
2021/01/23 00:10:30;;;;;;;7.00;4.00;;;1.60;99.90;;;;;;5032549;28;20488;-43
2021/01/23 00:12:56;;;;;;;5.32;3.00;;;1.50;99.90;;;;;;5032907;28;20037;-44
2021/01/23 00:15:22;;;;;;;4.88;3.50;;;1.60;99.90;;;;;;5032575;28;20489;-45
2021/01/23 00:17:48;;;;;;;8.48;3.95;;;1.60;99.90;;;;;;5031797;28;20021;-42
2021/01/23 00:20:14;;;;;;;9.80;3.60;;;1.60;99.90;;;;;;5032617;28;20022;-42
2021/01/23 00:22:39;;;;;;;7.43;4.43;;;1.70;99.90;;;;;;5032873;28;20026;-45
2021/01/23 00:25:06;;;;;;;9.65;4.78;;;1.70;99.90;;;;;;5032490;28;20416;-43
2021/01/23 00:27:31;;;;;;;13.15;5.70;;;1.70;99.90;;;;;;5031234;28;20104;-44
2021/01/23 00:29:58;;;;;;;11.98;6.03;;;1.70;99.90;;;;;;5032479;28;20430;-43
2021/01/23 00:32:24;;;;;;;9.98;5.28;;;1.70;99.90;;;;;;5031279;28;20030;-43
2021/01/23 00:34:50;;;;;;;12.25;6.25;;;1.70;99.90;;;;;;5032356;28;20029;-44
2021/01/23 00:37:15;;;;;;;11.07;5.88;;;1.70;99.90;;;;;;5032563;28;20056;-42
2021/01/23 00:39:40;;;;;;;10.48;4.95;;;1.70;99.90;;;;;;5032231;28;20426;-43
2021/01/23 00:42:06;;;;;;;6.82;4.13;;;1.70;99.90;;;;;;5032471;28;20109;-41
2021/01/23 00:44:31;;;;;;;6.63;4.03;;;1.70;99.90;;;;;;5032067;28;20029;-45
2021/01/23 00:46:57;;;;;;;11.07;4.50;;;1.70;99.90;;;;;;5031157;28;20109;-44
2021/01/23 00:49:23;;;;;;;11.77;5.00;;;1.70;99.90;;;;;;5032209;28;20433;-44
2021/01/23 00:51:49;;;;;;;7.95;4.03;;;1.70;99.90;;;;;;5032187;28;20021;-41
2021/01/23 00:54:15;;;;;;;6.75;3.97;;;1.70;99.90;;;;;;5031843;28;20053;-44
2021/01/23 00:56:40;;;;;;;6.22;3.55;;;1.80;99.90;;;;;;5032050;28;20022;-41
2021/01/23 00:59:06;;;;;;;6.38;3.55;;;1.80;99.90;;;;;;5031936;28;20017;-42
2021/01/23 01:01:32;;;;;;;7.40;3.72;;;1.80;99.90;;;;;;5030599;28;20092;-45
2021/01/23 01:03:57;;;;;;;6.10;3.45;;;1.80;99.90;;;;;;5031698;28;20026;-41
2021/01/23 01:06:23;;;;;;;7.30;3.63;;;1.80;99.90;;;;;;5031754;28;20536;-43
2021/01/23 01:08:48;;;;;;;9.27;4.07;;;1.80;99.90;;;;;;5031686;28;20033;-45
2021/01/23 01:11:13;;;;;;;6.45;3.25;;;1.80;99.90;;;;;;5031615;28;20029;-43
2021/01/23 01:13:39;;;;;;;6.18;3.65;;;1.80;99.90;;;;;;5031372;28;20040;-42
2021/01/23 01:16:05;;;;;;;4.90;3.05;;;1.90;99.90;;;;;;5030160;28;20105;-42
2021/01/23 01:18:30;;;;;;;5.97;3.55;;;1.90;99.90;;;;;;5034156;28;20025;-41
2021/01/23 01:20:56;;;;;;;7.32;3.50;;;1.90;99.90;;;;;;5036397;28;20510;-46
2021/01/23 01:23:21;;;;;;;5.93;3.03;;;1.90;99.90;;;;;;5025296;28;20022;-41
2021/01/23 01:25:47;;;;;;;9.05;3.78;;;1.90;99.90;;;;;;5024711;28;20105;-44
2021/01/23 01:28:12;;;;;;;5.70;3.70;;;1.90;99.90;;;;;;5031761;28;20049;-44
2021/01/23 01:30:38;;;;;;;6.18;4.32;;;1.90;99.90;;;;;;5031201;28;20037;-44
2021/01/23 01:33:04;;;;;;;5.93;3.25;;;2.00;99.90;;;;;;5030147;28;20025;-44
2021/01/23 01:35:29;;;;;;;4.97;3.42;;;2.00;99.90;;;;;;5031161;28;20043;-43
2021/01/23 01:37:55;;;;;;;5.90;3.35;;;1.90;99.90;;;;;;5031324;28;20108;-42
2021/01/23 01:40:20;;;;;;;6.43;3.65;;;1.90;99.90;;;;;;5031112;28;20025;-44
2021/01/23 01:42:46;;;;;;;6.20;4.07;;;1.90;99.90;;;;;;5031042;28;20193;-44
2021/01/23 01:45:12;;;;;;;7.10;3.65;;;1.90;99.90;;;;;;5031180;28;20357;-48
2021/01/23 01:47:38;;;;;;;7.07;4.20;;;1.90;99.90;;;;;;5029933;28;20056;-44
2021/01/23 01:50:05;;;;;;;8.50;3.78;;;1.80;99.90;;;;;;5029977;28;20486;-43
2021/01/23 01:52:30;;;;;;;6.32;3.65;;;1.80;99.90;;;;;;5030735;28;20113;-44
2021/01/23 01:54:56;;;;;;;5.25;3.08;;;1.80;99.90;;;;;;5030789;28;20029;-46
2021/01/23 01:57:22;;;;;;;6.97;3.70;;;1.80;99.90;;;;;;5030987;28;20367;-44
2021/01/23 01:59:48;;;;;;;7.63;3.53;;;1.80;99.90;;;;;;5030908;28;20025;-45
2021/01/23 02:02:39;;;;;;;6.35;3.58;;;1.80;99.90;;;;;;5029652;28;20021;-45
2021/01/23 02:05:29;;;;;;;5.35;3.30;;;1.80;99.90;;;;;;5030913;28;20029;-43
2021/01/23 02:08:00;;;;;;;4.70;3.00;;;1.80;99.90;;;;;;5031048;28;20036;-43
2021/01/23 02:10:39;;;;;;;6.82;3.63;;;1.80;99.90;;;;;;5030614;28;20079;-42
2021/01/23 02:13:18;;;;;;;8.27;3.65;;;1.80;99.90;;;;;;5030899;28;20029;-42
2021/01/23 02:16:08;;;;;;;4.53;2.60;;;1.80;99.90;;;;;;5029466;28;20041;-43
2021/01/23 02:18:42;;;;;;;5.22;3.13;;;1.80;99.90;;;;;;5024743;28;20026;-41
2021/01/23 02:21:28;;;;;;;5.88;3.20;;;1.80;99.90;;;;;;5029187;28;20212;-41
2021/01/23 02:23:55;;;;;;;6.47;3.10;;;1.80;99.90;;;;;;5030804;28;20025;-45
2021/01/23 02:26:46;;;;;;;6.05;3.80;;;1.80;99.90;;;;;;5030987;28;20033;-44
2021/01/23 02:29:28;;;;;;;5.80;2.92;;;1.80;99.90;;;;;;5030723;28;20488;-41
2021/01/23 02:32:00;;;;;;;8.10;3.40;;;1.80;99.90;;;;;;5029219;28;20037;-43
2021/01/23 02:34:27;;;;;;;9.15;3.25;;;1.80;99.90;;;;;;5030337;28;20025;-43
2021/01/23 02:36:55;;;;;;;3.67;2.80;;;1.80;99.90;;;;;;5030603;28;20465;-44
2021/01/23 02:39:23;;;;;;;7.40;3.45;;;1.80;99.90;;;;;;5030768;28;20134;-44
2021/01/23 02:41:51;;;;;;;5.53;2.85;;;1.80;99.90;;;;;;5030446;28;20052;-42
2021/01/23 02:44:17;;;;;;;7.07;3.40;;;1.80;99.90;;;;;;5030516;28;20057;-47
2021/01/23 02:46:43;;;;;;;4.30;3.10;;;1.90;99.90;;;;;;5028942;28;20061;-43
2021/01/23 02:49:09;;;;;;;5.05;2.90;;;1.90;99.90;;;;;;5030370;28;20488;-44
2021/01/23 02:52:05;;;;;;;6.07;2.80;;;1.90;99.90;;;;;;5030217;28;20064;-44
2021/01/23 02:54:53;;;;;;;7.60;3.03;;;1.90;99.90;;;;;;5017705;28;20041;-46
2021/01/23 02:57:21;;;;;;;5.45;2.85;;;1.90;99.90;;;;;;5030236;28;20405;-44
2021/01/23 02:59:49;;;;;;;5.05;2.38;;;1.90;99.90;;;;;;5030201;28;20807;-46
2021/01/23 03:02:18;;;;;;;6.47;3.20;;;1.90;99.90;;;;;;5030030;28;20018;-43
2021/01/23 03:04:45;;;;;;;6.55;3.35;;;2.00;99.90;;;;;;5032020;28;20124;-45
2021/01/23 03:07:15;;;;;;;4.90;3.03;;;2.00;99.90;;;;;;5032020;28;20033;-42
2021/01/23 03:09:41;;;;;;;4.90;2.78;;;1.90;99.90;;;;;;5031772;28;20084;-43
2021/01/23 03:12:07;;;;;;;5.32;3.17;;;2.00;99.90;;;;;;5031719;28;20034;-43
2021/01/23 03:14:34;;;;;;;6.13;2.90;;;1.90;99.90;;;;;;5031891;28;20021;-43
2021/01/23 03:16:59;;;;;;;5.80;3.15;;;2.00;99.90;;;;;;5030723;28;20022;-43
2021/01/23 03:19:25;;;;;;;5.18;2.80;;;2.00;99.90;;;;;;5032068;28;20030;-43
2021/01/23 03:21:51;;;;;;;7.10;3.15;;;2.00;99.90;;;;;;5031845;28;20112;-45
2021/01/23 03:24:18;;;;;;;5.40;2.95;;;2.00;99.90;;;;;;5032106;28;20109;-46
2021/01/23 03:26:44;;;;;;;4.32;2.90;;;2.00;99.90;;;;;;5032081;28;20075;-44
2021/01/23 03:29:10;;;;;;;5.32;3.65;;;2.00;99.90;;;;;;5035471;28;20030;-45
2021/01/23 03:31:36;;;;;;;6.50;3.05;;;2.00;99.90;;;;;;5033956;28;20084;-42
2021/01/23 03:34:03;;;;;;;4.32;3.20;;;2.00;99.90;;;;;;5035842;28;20029;-42
2021/01/23 03:36:29;;;;;;;5.65;2.75;;;2.00;99.90;;;;;;5035290;28;20037;-43
2021/01/23 03:38:56;;;;;;;4.80;2.95;;;2.00;99.90;;;;;;5035341;28;20116;-44
2021/01/23 03:41:22;;;;;;;4.95;2.83;;;2.00;99.90;;;;;;5035061;28;20433;-41
2021/01/23 03:43:47;;;;;;;4.68;2.78;;;2.00;99.90;;;;;;5035222;28;20116;-42
2021/01/23 03:46:13;;;;;;;4.78;2.95;;;2.00;99.90;;;;;;5034198;28;20040;-47
2021/01/23 03:48:38;;;;;;;6.38;3.38;;;2.00;99.90;;;;;;5035018;28;20029;-45
2021/01/23 03:51:05;;;;;;;6.60;2.95;;;2.00;99.90;;;;;;5035024;28;20036;-42
2021/01/23 03:53:31;;;;;;;4.50;2.55;;;2.00;99.90;;;;;;5034968;28;20079;-41
2021/01/23 03:55:56;;;;;;;6.82;3.03;;;2.00;99.90;;;;;;5034630;28;20048;-42
2021/01/23 03:58:22;;;;;;;6.03;3.47;;;2.00;99.90;;;;;;5035092;28;20017;-42
2021/01/23 04:00:47;;;;;;;3.88;2.60;;;2.00;99.90;;;;;;5034382;28;20461;-43
2021/01/23 04:03:14;;;;;;;4.03;2.60;;;2.00;99.90;;;;;;5034352;28;20025;-44
2021/01/23 04:05:40;;;;;;;5.15;2.95;;;1.90;99.90;;;;;;5034835;28;20109;-42
2021/01/23 04:08:06;;;;;;;6.07;3.20;;;2.00;99.90;;;;;;5034791;28;20112;-42
2021/01/23 04:10:32;;;;;;;4.45;2.85;;;2.00;99.90;;;;;;5034626;28;20028;-45
2021/01/23 04:12:57;;;;;;;3.85;2.70;;;2.00;99.90;;;;;;5034551;28;20021;-45
2021/01/23 04:15:24;;;;;;;3.35;2.45;;;2.00;99.90;;;;;;5034625;28;20117;-43
2021/01/23 04:17:50;;;;;;;6.32;2.92;;;2.00;99.90;;;;;;5033227;28;20108;-45
2021/01/23 04:20:16;;;;;;;4.55;2.75;;;1.90;99.90;;;;;;5034574;28;20025;-41
2021/01/23 04:22:41;;;;;;;4.13;3.05;;;2.00;99.90;;;;;;5034275;28;20025;-42
2021/01/23 04:25:08;;;;;;;7.55;2.90;;;2.00;99.90;;;;;;5034414;28;20030;-42
2021/01/23 04:27:33;;;;;;;5.78;3.25;;;2.00;99.90;;;;;;5034339;28;20026;-40
2021/01/23 04:29:59;;;;;;;4.75;3.05;;;2.00;99.90;;;;;;5034428;28;20104;-41
2021/01/23 04:32:24;;;;;;;2.92;2.25;;;2.00;99.90;;;;;;5031815;28;20029;-43
2021/01/23 04:34:50;;;;;;;5.10;2.88;;;2.00;99.90;;;;;;5034016;28;20113;-47
2021/01/23 04:37:15;;;;;;;5.28;3.03;;;2.00;99.90;;;;;;5034189;28;20411;-44
2021/01/23 04:39:41;;;;;;;4.30;2.70;;;2.00;99.90;;;;;;5033393;28;20028;-43
2021/01/23 04:42:07;;;;;;;5.45;2.55;;;2.00;99.90;;;;;;5033981;28;20026;-41
2021/01/23 04:44:34;;;;;;;5.00;2.90;;;2.00;99.90;;;;;;5034178;28;20022;-43
2021/01/23 04:47:02;;;;;;;8.85;3.00;;;2.00;99.90;;;;;;5032877;28;20040;-43
2021/01/23 04:49:27;;;;;;;5.15;2.90;;;2.00;99.90;;;;;;5034003;28;20029;-42
2021/01/23 04:51:53;;;;;;;5.47;2.97;;;2.00;99.90;;;;;;5033786;28;20040;-44
2021/01/23 04:54:18;;;;;;;5.25;3.15;;;2.00;99.90;;;;;;5033762;28;20047;-43
2021/01/23 04:56:44;;;;;;;5.95;2.92;;;2.00;99.90;;;;;;5033684;28;20132;-43
2021/01/23 04:59:09;;;;;;;5.50;3.58;;;2.00;99.90;;;;;;5034019;28;20048;-43
2021/01/23 05:01:35;;;;;;;3.60;2.50;;;2.00;99.90;;;;;;5032525;28;20033;-42
2021/01/23 05:04:02;;;;;;;8.98;3.10;;;2.00;99.90;;;;;;5033605;28;20029;-41
2021/01/23 05:06:29;;;;;;;4.45;2.85;;;2.00;99.90;;;;;;5032337;28;20033;-43
2021/01/23 05:08:58;;;;;;;6.63;3.05;;;2.00;99.90;;;;;;5033369;28;20037;-44
2021/01/23 05:11:44;;;;;;;5.20;2.92;;;2.00;99.90;;;;;;5033438;28;20049;-42
2021/01/23 05:14:14;;;;;;;;;;;2.00;99.90;;;;;;5034031;28;20067;-45
2021/01/23 05:16:40;;;;;;;6.72;3.05;;;2.00;99.90;;;;;;5032255;28;19909;-42
2021/01/23 05:19:06;;;;;;;5.68;3.55;;;2.00;99.90;;;;;;5033332;28;20376;-41
2021/01/23 05:21:32;;;;;;;4.57;2.90;;;2.00;99.90;;;;;;5033224;28;20017;-42
2021/01/23 05:24:05;;;;;;;5.18;3.08;;;2.00;99.90;;;;;;5033567;28;20033;-43
2021/01/23 05:26:31;;;;;;;6.20;2.90;;;2.10;99.90;;;;;;5033272;28;20576;-43
2021/01/23 05:29:13;;;;;;;8.02;3.45;;;2.10;99.90;;;;;;5033313;28;20108;-44
2021/01/23 05:31:40;;;;;;;4.53;2.83;;;2.10;99.90;;;;;;5032302;28;20072;-43
2021/01/23 05:34:31;;;;;;;7.20;3.50;;;2.10;99.90;;;;;;5032634;28;20034;-43
2021/01/23 05:36:58;;;;;;;8.38;5.13;;;2.10;99.90;;;;;;5032433;28;20029;-41
2021/01/23 05:39:50;;;;;;;7.43;4.32;;;2.10;99.90;;;;;;5032644;28;20057;-43
2021/01/23 05:42:17;;;;;;;7.00;4.50;;;2.10;99.90;;;;;;5032473;28;20068;-41
2021/01/23 05:45:02;;;;;;;10.80;5.18;;;2.10;99.90;;;;;;5032738;28;20124;-43
2021/01/23 05:47:28;;;;;;;7.07;4.10;;;2.10;99.90;;;;;;5031471;28;20041;-43
2021/01/23 05:49:54;;;;;;;11.68;5.45;;;2.20;99.90;;;;;;5032126;28;20465;-41
2021/01/23 05:52:20;;;;;;;8.40;5.05;;;2.20;99.90;;;;;;5031956;28;20071;-46
2021/01/23 05:54:46;;;;;;;8.60;4.55;;;2.20;99.90;;;;;;5032188;28;20029;-43
2021/01/23 05:57:12;;;;;;;7.40;5.35;;;2.20;99.90;;;;;;5032484;28;20153;-43
2021/01/23 05:59:41;;;;;;;8.50;5.00;;;2.20;99.90;;;;;;5032792;28;20457;-43
2021/01/23 06:02:12;;;;;;;10.43;4.78;;;2.20;99.90;;;;;;5031013;28;20025;-42
2021/01/23 06:04:42;;;;;;;7.60;4.97;;;2.30;99.90;;;;;;5032630;28;20082;-44
2021/01/23 06:07:28;;;;;;;12.10;5.50;;;2.30;99.90;;;;;;5032039;28;20029;-42
2021/01/23 06:09:54;;;;;;;6.38;3.30;;;2.30;99.90;;;;;;5032175;28;20040;-41
2021/01/23 06:12:31;;;;;;;8.80;5.05;;;2.30;99.90;;;;;;5032143;28;20034;-43
2021/01/23 06:14:57;;;;;;;11.70;6.22;;;2.40;99.90;;;;;;5032155;28;20100;-44
2021/01/23 06:17:45;;;;;;;10.85;5.35;;;2.40;99.90;;;;;;5030944;28;20027;-43
2021/01/23 06:20:31;;;;;;;14.13;6.63;;;2.40;99.90;;;;;;5032198;28;20021;-44
2021/01/23 06:22:56;;;;;;;12.30;5.78;;;2.40;99.90;;;;;;5031947;28;20061;-42
2021/01/23 06:25:22;;;;;;;11.43;6.28;;;2.40;99.90;;;;;;5032110;28;20095;-43
2021/01/23 06:27:49;;;;;;;12.18;6.03;;;2.50;99.90;;;;;;5031748;28;20030;-44
2021/01/23 06:30:28;;;;;;;11.52;6.18;;;2.50;99.90;;;;;;5029505;28;20034;-42
2021/01/23 06:32:54;;;;;;;8.73;5.65;;;2.50;99.90;;;;;;5030648;28;20494;-44
2021/01/23 06:35:20;;;;;;;13.70;7.00;;;2.60;99.90;;;;;;5032069;28;20026;-43
2021/01/23 06:37:46;;;;;;;13.60;8.25;;;2.60;99.90;;;;;;5031853;28;20060;-43
2021/01/23 06:40:11;;;;;;;12.32;7.25;;;2.60;99.90;;;;;;5032108;28;20030;-40
2021/01/23 06:42:38;;;;;;;10.30;7.15;;;2.60;99.90;;;;;;5031850;28;20104;-41
2021/01/23 06:45:34;;;;;;;13.77;7.25;;;2.60;99.90;;;;;;5047104;28;20053;-42
2021/01/23 06:48:01;;;;;;;9.57;4.82;;;2.60;99.90;;;;;;5029491;28;20118;-43
2021/01/23 06:50:40;;;;;;;12.77;5.60;;;2.60;99.90;;;;;;5031793;28;20053;-40
2021/01/23 06:53:19;;;;;;;8.10;5.05;;;2.60;99.90;;;;;;5033083;28;20044;-40
2021/01/23 06:55:53;;;;;;;11.13;5.53;;;2.60;99.90;;;;;;5051049;28;20468;-42
2021/01/23 06:58:26;;;;;;;13.05;5.57;;;2.70;99.90;;;;;;5051219;28;20035;-43
2021/01/23 07:00:55;;;;;;;9.77;5.25;;;2.70;99.90;;;;;;5049995;28;20453;-44
2021/01/23 07:03:21;;;;;;;12.63;5.80;;;2.80;99.90;;;;;;5054342;28;20029;-42
2021/01/23 07:05:58;;;;;;;9.10;5.38;;;2.80;99.90;;;;;;5055249;28;20051;-43
2021/01/23 07:08:37;;;;;;;9.88;5.57;;;2.80;99.90;;;;;;5055084;28;20040;-40
2021/01/23 07:11:21;;;;;;;10.27;4.97;;;2.90;99.90;;;;;;5054990;28;20017;-44
2021/01/23 07:14:06;;;;;;;13.10;5.70;;;2.90;99.90;;;;;;5070458;28;20021;-43
2021/01/23 07:16:33;;;;;;;12.43;5.30;;;2.90;99.90;;;;;;5049248;28;20069;-44
2021/01/23 07:19:01;;;;;;;8.40;5.28;;;2.90;99.90;;;;;;5034911;28;20038;-42
2021/01/23 07:21:30;;;;;;;12.77;5.70;;;2.90;99.90;;;;;;5034779;28;20028;-44
2021/01/23 07:23:56;;;;;;;10.05;5.88;;;2.90;99.90;;;;;;5034901;28;20037;-43
2021/01/23 07:26:23;;;;;;;12.75;5.85;;;2.90;99.90;;;;;;5035026;28;20127;-45
2021/01/23 07:28:56;;;;;;;10.98;6.07;;;2.90;99.90;;;;;;5034783;28;20025;-46
2021/01/23 07:31:24;;;;;;;10.30;5.72;;;2.90;99.90;;;;;;5033598;28;20412;-43
2021/01/23 07:33:49;;;;;;;9.77;5.40;;;3.00;99.90;;;;;;5034692;28;20029;-43
2021/01/23 07:36:35;;;;;;;10.75;5.97;;;3.00;99.90;;;;;;5034446;28;20041;-46
2021/01/23 07:39:14;;;;;;;11.10;5.22;;;3.00;99.90;;;;;;5034420;28;20372;-42
2021/01/23 07:41:46;;;;;;;8.95;5.10;;;3.00;99.90;;;;;;5034622;28;20017;-44
2021/01/23 07:44:12;;;;;;;13.25;5.80;;;3.00;99.90;;;;;;5034561;28;20036;-43
2021/01/23 07:46:41;;;;;;;10.60;5.00;;;3.00;99.90;;;;;;5033521;28;20028;-44
2021/01/23 07:49:09;;;;;;;9.77;5.30;;;3.00;99.90;;;;;;5034446;28;20021;-42
2021/01/23 07:51:35;;;;;;;10.50;5.10;;;3.00;99.90;;;;;;5034076;28;20048;-43
2021/01/23 07:54:13;;;;;;;7.05;4.47;;;3.00;99.90;;;;;;5033722;28;20061;-43
2021/01/23 07:56:58;;;;;;;8.35;4.40;;;3.00;99.90;;;;;;5034241;28;20421;-43
2021/01/23 07:59:46;;;;;;;9.55;5.05;;;3.00;99.90;;;;;;5034589;28;20033;-43
2021/01/23 08:02:13;;;;;;;8.30;4.10;;;3.00;99.90;;;;;;5033102;28;20020;-46
2021/01/23 08:04:39;;;;;;;11.60;5.20;;;3.00;99.90;;;;;;5034630;28;20030;-43
2021/01/23 08:07:25;;;;;;;8.90;4.90;;;3.10;99.90;;;;;;5034693;28;20053;-44
2021/01/23 08:10:10;;;;;;;12.23;4.68;;;3.10;99.90;;;;;;5034397;28;20029;-42
2021/01/23 08:12:37;;;;;;;7.60;3.70;;;3.10;99.90;;;;;;5031324;28;20030;-42
2021/01/23 08:15:05;;;;;;;10.32;4.65;;;3.10;99.90;;;;;;5031242;28;20022;-45
2021/01/23 08:17:46;;;;;;;8.73;4.43;;;3.00;99.90;;;;;;5031511;28;20037;-41
2021/01/23 08:20:15;;;;;;;6.63;4.03;;;3.00;99.90;;;;;;5032396;28;20040;-43
2021/01/23 08:23:11;;;;;;;8.65;4.50;;;3.00;99.90;;;;;;5023337;28;20036;-46
2021/01/23 08:25:44;;;;;;;6.97;3.95;;;3.00;99.90;;;;;;5023885;28;20049;-43
2021/01/23 08:28:11;;;;;;;8.32;3.92;;;3.00;99.90;;;;;;5019225;28;20037;-42
2021/01/23 08:30:37;;;;;;;8.55;3.83;;;3.00;99.90;;;;;;5032440;28;20045;-44
2021/01/23 08:33:04;;;;;;;7.68;4.55;;;3.00;99.90;;;;;;5031045;28;20021;-44
2021/01/23 08:35:31;;;;;;;9.20;4.75;;;3.00;99.90;;;;;;5018008;28;20030;-40
2021/01/23 08:37:56;;;;;;;9.32;4.57;;;2.90;99.90;;;;;;5031879;28;20029;-42
2021/01/23 08:40:23;;;;;;;13.52;5.47;;;2.90;99.90;;;;;;5031866;28;20493;-43
2021/01/23 08:42:49;;;;;;;5.82;3.58;;;2.90;99.90;;;;;;5032239;28;20068;-42
2021/01/23 08:45:16;;;;;;;8.38;4.20;;;2.80;99.90;;;;;;5031807;28;20041;-46
2021/01/23 08:47:42;;;;;;;10.38;5.00;;;2.80;99.90;;;;;;5032310;28;20019;-42
2021/01/23 08:50:08;;;;;;;8.60;4.50;;;2.80;99.90;;;;;;5033880;28;20392;-41
2021/01/23 08:52:34;;;;;;;14.15;5.43;;;2.80;99.90;;;;;;5031611;28;20033;-44
2021/01/23 08:55:00;;;;;;;9.60;4.63;;;2.70;99.90;;;;;;5031803;28;20440;-40
2021/01/23 08:57:25;;;;;;;8.38;4.53;;;2.70;99.90;;;;;;5031549;28;20033;-40
2021/01/23 08:59:51;;;;;;;7.38;3.85;;;2.70;99.90;;;;;;5030349;28;20028;-42
2021/01/23 09:02:16;;;;;;;10.23;5.15;;;2.70;99.90;;;;;;5030300;28;20453;-40
2021/01/23 09:04:41;;;;;;;8.10;4.43;;;2.70;99.90;;;;;;5018351;28;20194;-40
2021/01/23 09:07:08;;;;;;;8.80;4.95;;;2.60;99.90;;;;;;5016446;28;20433;-43
2021/01/23 09:09:34;;;;;;;9.13;4.78;;;2.60;99.90;;;;;;5029831;28;20036;-42
2021/01/23 09:11:59;;;;;;;9.43;4.97;;;2.60;99.90;;;;;;5031534;28;20029;-41
2021/01/23 09:14:25;;;;;;;8.77;5.47;;;2.50;99.90;;;;;;5029701;28;20033;-42
2021/01/23 09:16:52;;;;;;;13.63;6.65;;;2.50;99.90;;;;;;5030199;28;20031;-40
2021/01/23 09:19:19;;;;;;;9.63;5.68;;;2.50;99.90;;;;;;5030577;28;20464;-40
2021/01/23 09:21:44;;;;;;;8.25;5.13;;;2.50;99.90;;;;;;5030010;28;20116;-41
2021/01/23 09:24:10;;;;;;;7.82;4.80;;;2.40;99.90;;;;;;5031044;28;20112;-43
2021/01/23 09:26:35;;;;;;;9.48;4.93;;;2.40;99.90;;;;;;5028828;28;20465;-42
2021/01/23 09:29:01;;;;;;;8.65;5.47;;;2.40;99.90;;;;;;5031246;28;20033;-43
2021/01/23 09:31:26;;;;;;;10.02;5.65;;;2.40;99.90;;;;;;5029935;28;20496;-42
2021/01/23 09:33:52;;;;;;;9.82;5.32;;;2.40;99.90;;;;;;5030949;28;20025;-44
2021/01/23 09:36:18;;;;;;;9.77;5.45;;;2.40;99.90;;;;;;5028211;28;20055;-44
2021/01/23 09:38:43;;;;;;;9.07;5.80;;;2.40;99.90;;;;;;5014099;28;20058;-43
2021/01/23 09:41:10;;;;;;;10.15;5.70;;;2.40;99.90;;;;;;5026736;28;20072;-43
2021/01/23 09:43:36;;;;;;;12.43;5.45;;;2.40;99.90;;;;;;5030921;28;20025;-41
2021/01/23 09:46:02;;;;;;;9.27;5.78;;;2.40;99.90;;;;;;5022184;28;20037;-46
2021/01/23 09:48:27;;;;;;;11.27;6.47;;;2.40;99.90;;;;;;5030727;28;20033;-42
2021/01/23 09:50:53;;;;;;;7.20;4.80;;;2.40;99.90;;;;;;5030711;28;20030;-43
2021/01/23 09:53:19;;;;;;;9.55;5.75;;;2.40;99.90;;;;;;5023921;28;20058;-44
2021/01/23 09:55:44;;;;;;;10.00;5.35;;;2.40;99.90;;;;;;5030723;28;20039;-43
2021/01/23 09:58:10;;;;;;;10.90;5.43;;;2.40;99.90;;;;;;5030800;28;20642;-42
2021/01/23 10:00:36;;;;;;;9.70;6.13;;;2.40;99.90;;;;;;5029188;28;20026;-43
2021/01/23 10:03:01;;;;;;;8.57;5.20;;;2.40;99.90;;;;;;5017337;28;20031;-42
2021/01/23 10:05:27;;;;;;;6.38;4.05;;;2.40;99.90;;;;;;5030625;28;20495;-43
2021/01/23 10:07:52;;;;;;;8.63;5.65;;;2.40;99.90;;;;;;5030239;28;20506;-43
2021/01/23 10:10:18;;;;;;;9.65;6.07;;;2.40;99.90;;;;;;5030212;28;20436;-41
2021/01/23 10:12:43;;;;;;;10.10;5.15;;;2.30;99.90;;;;;;5030746;28;20026;-43
2021/01/23 10:15:09;;;;;;;11.57;6.75;;;2.30;99.90;;;;;;5030324;28;20477;-47
2021/01/23 10:17:35;;;;;;;8.15;5.03;;;2.30;99.90;;;;;;5029246;28;20073;-42
2021/01/23 10:20:01;;;;;;;9.85;6.10;;;2.30;99.90;;;;;;5030308;28;20025;-44
2021/01/23 10:22:26;;;;;;;7.28;4.75;;;2.30;99.90;;;;;;5030513;28;20037;-41
2021/01/23 10:24:52;;;;;;;10.27;6.60;;;2.30;99.90;;;;;;5030797;28;20060;-44
2021/01/23 10:27:18;;;;;;;6.85;4.97;;;2.30;99.90;;;;;;5030013;28;20028;-43
2021/01/23 10:29:43;;;;;;;9.23;5.57;;;2.30;99.90;;;;;;5030512;28;20025;-43
2021/01/23 10:32:09;;;;;;;7.63;4.85;;;2.30;99.90;;;;;;5029074;28;20191;-42
2021/01/23 10:34:34;;;;;;;7.35;4.43;;;2.30;99.90;;;;;;5030007;28;20113;-40
2021/01/23 10:37:00;;;;;;;7.70;4.65;;;2.30;99.90;;;;;;5031229;28;20397;-42
2021/01/23 10:39:25;;;;;;;10.18;5.15;;;2.40;99.90;;;;;;5034024;28;20025;-42
2021/01/23 10:41:51;;;;;;;7.10;4.22;;;2.40;99.90;;;;;;5034151;28;20177;-40
2021/01/23 10:44:17;;;;;;;6.47;4.13;;;2.40;99.90;;;;;;5034154;28;20033;-43
2021/01/23 10:46:42;;;;;;;6.15;4.20;;;2.40;99.90;;;;;;5032774;28;20030;-42
2021/01/23 10:49:08;;;;;;;7.93;5.47;;;2.40;99.90;;;;;;5034277;28;20396;-43
2021/01/23 10:51:33;;;;;;;7.88;4.68;;;2.50;99.90;;;;;;5035290;28;20021;-43
2021/01/23 10:53:59;;;;;;;7.63;3.90;;;2.50;99.90;;;;;;5051004;28;20045;-41
2021/01/23 10:56:24;;;;;;;5.15;3.83;;;2.50;99.90;;;;;;5048411;28;20026;-40
2021/01/23 10:58:50;;;;;;;8.18;5.03;;;2.50;99.90;;;;;;5034325;28;20104;-42
2021/01/23 11:01:15;;;;;;;8.45;5.70;;;2.60;99.90;;;;;;5038539;28;20033;-41
2021/01/23 11:03:41;;;;;;;7.28;4.65;;;2.60;99.90;;;;;;5033913;28;20041;-42
2021/01/23 11:06:07;;;;;;;5.32;3.47;;;2.60;99.90;;;;;;5032889;28;20021;-43
2021/01/23 11:08:33;;;;;;;6.88;4.43;;;2.60;99.90;;;;;;5028612;28;20392;-39
2021/01/23 11:10:59;;;;;;;5.55;3.95;;;2.60;99.90;;;;;;5029014;28;20040;-40
2021/01/23 11:13:24;;;;;;;4.93;4.10;;;2.60;99.90;;;;;;5019689;28;20112;-42
2021/01/23 11:15:50;;;;;;;6.97;4.82;;;2.60;99.90;;;;;;5032733;28;20067;-42
2021/01/23 11:18:16;;;;;;;6.30;4.47;;;2.60;99.90;;;;;;5033630;28;20017;-41
2021/01/23 11:20:41;;;;;;;5.93;4.68;;;2.60;99.90;;;;;;5033962;28;20021;-43
2021/01/23 11:23:07;;;;;;;5.25;3.67;;;2.70;99.90;;;;;;5033879;28;20083;-43
2021/01/23 11:25:32;;;;;;;7.70;4.88;;;2.70;99.90;;;;;;5032121;28;20083;-42
2021/01/23 11:27:58;;;;;;;5.22;3.78;;;2.70;99.90;;;;;;5033522;28;20281;-42
2021/01/23 11:30:24;;;;;;;6.65;4.05;;;2.70;99.90;;;;;;5033780;28;20060;-40
2021/01/23 11:32:50;;;;;;;6.90;4.63;;;2.80;99.90;;;;;;5032486;28;20508;-40
2021/01/23 11:35:16;;;;;;;8.90;5.65;;;2.80;99.90;;;;;;5033583;28;20116;-44
2021/01/23 11:37:41;;;;;;;7.90;5.57;;;2.80;99.90;;;;;;5033734;28;20485;-41
2021/01/23 11:40:08;;;;;;;7.43;5.30;;;2.80;99.90;;;;;;5033998;28;20086;-40
2021/01/23 11:42:34;;;;;;;7.15;5.25;;;2.80;99.90;;;;;;5033469;28;20021;-40
2021/01/23 11:44:59;;;;;;;7.28;5.40;;;2.80;99.90;;;;;;5033244;28;20030;-42
2021/01/23 11:47:25;;;;;;;8.85;6.35;;;2.80;99.90;;;;;;5030468;28;20030;-42
2021/01/23 11:49:51;;;;;;;8.50;5.28;;;2.80;99.90;;;;;;5033678;28;20155;-41
2021/01/23 11:52:16;;;;;;;10.05;5.93;;;2.80;99.90;;;;;;5033171;28;20072;-41
2021/01/23 11:54:42;;;;;;;10.88;6.47;;;2.80;99.90;;;;;;5033169;28;20220;-43
2021/01/23 11:57:08;;;;;;;7.85;5.70;;;2.80;99.90;;;;;;5033652;28;20256;-45
2021/01/23 11:59:35;;;;;;;10.43;6.43;;;2.90;99.90;;;;;;5033593;28;20500;-41
2021/01/23 12:02:01;;;;;;;11.38;8.18;;;2.90;99.90;;;;;;5031879;28;20017;-40
2021/01/23 12:04:26;;;;;;;8.90;5.68;;;2.90;99.90;;;;;;5032913;28;20079;-44
2021/01/23 12:06:52;;;;;;;11.73;6.28;;;2.90;99.90;;;;;;5048417;28;20469;-40
2021/01/23 12:09:17;;;;;;;8.43;5.50;;;2.90;99.90;;;;;;5033207;28;20039;-42
2021/01/23 12:11:43;;;;;;;9.38;6.03;;;3.00;99.90;;;;;;5032868;28;20037;-42
2021/01/23 12:14:08;;;;;;;9.32;5.57;;;3.00;99.90;;;;;;5033454;28;20526;-43
2021/01/23 12:16:34;;;;;;;12.18;8.05;;;3.00;99.90;;;;;;5032356;28;20385;-43
2021/01/23 12:18:59;;;;;;;14.07;7.53;;;3.00;99.90;;;;;;5033958;28;20053;-45
2021/01/23 12:21:25;;;;;;;12.93;7.72;;;3.00;99.90;;;;;;5033522;28;20392;-42
2021/01/23 12:23:53;;;;;;;10.15;6.45;;;3.00;99.90;;;;;;5033856;28;20104;-40
2021/01/23 12:26:19;;;;;;;14.77;6.30;;;3.00;99.90;;;;;;5033790;28;20032;-41
2021/01/23 12:28:44;;;;;;;8.73;5.18;;;3.00;99.90;;;;;;5033369;28;20025;-43
2021/01/23 12:31:10;;;;;;;9.32;5.85;;;3.00;99.90;;;;;;5021609;28;20042;-41
2021/01/23 12:33:35;;;;;;;12.65;5.85;;;3.00;99.90;;;;;;5029381;28;20109;-41
2021/01/23 12:36:01;;;;;;;10.45;5.63;;;3.00;99.90;;;;;;5033470;28;20036;-42
2021/01/23 12:38:26;;;;;;;9.05;5.03;;;3.00;99.90;;;;;;5032067;28;20025;-43
2021/01/23 12:40:52;;;;;;;11.98;6.13;;;3.00;99.90;;;;;;5033330;28;20094;-41
2021/01/23 12:43:17;;;;;;;9.27;5.75;;;3.00;99.90;;;;;;5033376;28;20460;-40
2021/01/23 12:45:42;;;;;;;13.73;6.80;;;3.00;99.90;;;;;;5031957;28;20044;-41
2021/01/23 12:48:08;;;;;;;14.75;5.75;;;3.00;99.90;;;;;;5033166;28;20116;-40
2021/01/23 12:50:33;;;;;;;19.25;7.57;;;3.10;99.90;;;;;;5033140;28;20037;-41
2021/01/23 12:52:59;;;;;;;20.85;6.82;;;3.10;99.90;;;;;;5032957;28;20650;-42
2021/01/23 12:55:25;;;;;;;17.02;6.20;;;3.10;99.90;;;;;;5032893;28;20037;-42
2021/01/23 12:57:50;;;;;;;15.88;5.93;;;3.10;99.90;;;;;;5033164;28;20033;-42
2021/01/23 13:00:17;;;;;;;12.88;6.30;;;3.20;99.90;;;;;;5032223;28;20028;-41